Time;durP1;ratioP1;P1;durP2;ratioP2;P2;SDS_P1;SDS_P2;PMS_P1;PMS_P2;Temp;Humidity;BMP_temperature;BMP_pressure;BME280_temperature;BME280_humidity;BME280_pressure;Samples;Min_cycle;Max_cycle;Signal;HPM_P1;HPM_P2
2023/02/14 00:04:43;;;;;;;0.00;0.00;;;;;;;6.14;90.59;101849.56;5964627;24;20036;-77
2023/02/14 00:24:57;;;;;;;0.00;0.00;;;;;;;6.18;90.20;101839.97;5916452;24;20068;-78
2023/02/14 00:27:32;;;;;;;0.00;0.00;;;;;;;5.89;90.03;101793.00;5884230;24;20092;-76
2023/02/14 00:31:16;;;;;;;;;;;;;;;;;;;;;
2023/02/14 00:45:08;;;;;;;0.00;0.00;;;;;;;5.80;91.29;101786.91;5797086;24;20039;-77
2023/02/14 00:48:07;;;;;;;;;;;;;;;6.06;90.81;101835.13;5874872;24;20444;-77
2023/02/14 01:08:35;;;;;;;0.00;0.00;;;;;;;6.05;92.18;101821.75;5882825;24;20012;-76
2023/02/14 01:15:19;;;;;;;0.00;0.00;;;;;;;6.04;91.68;101810.00;5930124;23;20068;-77
2023/02/14 01:25:54;;;;;;;;;;;;;;;;;;;;;
2023/02/14 01:32:12;;;;;;;0.00;0.00;;;;;;;5.77;91.76;101826.16;5796809;24;20028;-76
2023/02/14 01:34:43;;;;;;;0.00;0.00;;;;;;;5.67;92.75;101820.25;5817245;24;20019;-77
2023/02/14 01:37:25;;;;;;;0.00;0.00;;;;;;;5.36;92.75;101778.09;5844788;24;20014;-76
2023/02/14 01:40:07;;;;;;;0.00;0.00;;;;;;;5.61;92.18;101831.91;5983738;23;20119;-76
2023/02/14 01:42:40;;;;;;;0.00;0.00;;;;;;;5.36;93.26;101801.66;6046876;23;20086;-76
2023/02/14 01:45:37;;;;;;;0.00;0.00;;;;;;;5.51;92.96;101836.84;6099756;23;20008;-76
2023/02/14 01:48:17;;;;;;;;;;;;;;;;;;;;;
2023/02/14 01:51:16;;;;;;;;;;;;;;;;;;;;;
2023/02/14 01:54:30;;;;;;;0.00;0.00;;;;;;;5.24;93.30;101795.94;6183998;23;20025;-75
2023/02/14 01:57:08;;;;;;;0.10;0.10;;;;;;;5.39;92.96;101833.84;6153762;23;20055;-75
2023/02/14 01:59:55;;;;;;;0.00;0.00;;;;;;;4.99;93.24;101782.78;6140729;23;20100;-76
2023/02/14 02:02:30;;;;;;;0.00;0.00;;;;;;;4.90;93.33;101776.66;6163928;23;20001;-74
2023/02/14 02:04:58;;;;;;;0.08;0.08;;;;;;;4.82;94.04;101778.69;6163751;23;20005;-75
2023/02/14 02:07:36;;;;;;;;;;;;;;;;;;;;;
2023/02/14 02:11:04;;;;;;;0.00;0.00;;;;;;;5.10;93.94;101830.25;6190971;23;20021;-76
2023/02/14 02:13:47;;;;;;;;;;;;;;;;;;;;;
2023/02/14 02:16:51;;;;;;;;;;;;;;;;;;;;;
2023/02/14 02:20:03;;;;;;;0.00;0.00;;;;;;;5.32;94.00;101839.19;6222120;23;20044;-76
2023/02/14 02:23:08;;;;;;;0.00;0.00;;;;;;;5.27;94.53;101830.81;6195537;23;20004;-76
2023/02/14 02:26:26;;;;;;;;;;;;;;;;;;;;;
2023/02/14 02:29:39;;;;;;;0.00;0.00;;;;;;;5.09;93.81;101839.41;6223527;23;20024;-76
2023/02/14 02:32:52;;;;;;;0.00;0.00;;;;;;;5.03;94.25;101838.31;6170760;23;20007;-76
2023/02/14 02:53:01;;;;;;;0.10;0.10;;;;;;;4.63;96.42;101829.81;6072664;23;20021;-76
2023/02/14 02:59:27;;;;;;;;;;;;;;;;;;;;;
2023/02/14 03:02:06;;;;;;;0.00;0.00;;;;;;;4.81;95.67;101828.53;6016284;23;20031;-75
2023/02/14 03:05:40;;;;;;;;;;;;;;;;;;;;;
2023/02/14 03:08:30;;;;;;;;;;;;;;;;;;;;;
2023/02/14 03:11:25;;;;;;;;;;;;;;;;;;;;;
2023/02/14 03:15:05;;;;;;;;;;;;;;;;;;;;;
2023/02/14 03:17:30;;;;;;;0.00;0.00;;;;;;;4.72;95.44;101800.72;6098039;23;20063;-76
2023/02/14 03:20:22;;;;;;;0.00;0.00;;;;;;;4.85;95.87;101833.34;6091258;23;20078;-76
2023/02/14 03:26:24;;;;;;;0.00;0.00;;;;;;;4.78;95.86;101831.63;6077135;23;20070;-76
2023/02/14 03:29:44;;;;;;;;;;;;;;;;;;;;;
2023/02/14 03:33:07;;;;;;;0.00;0.00;;;;;;;4.63;96.08;101797.28;6175187;23;20028;-75
2023/02/14 03:36:38;;;;;;;0.00;0.00;;;;;;;4.85;96.58;101837.94;6164059;23;20004;-76
2023/02/14 03:39:24;;;;;;;0.00;0.00;;;;;;;4.80;96.51;101808.69;6104269;23;20090;-76
2023/02/14 03:42:32;;;;;;;;;;;;;;;;;;;;;
2023/02/14 03:50:59;;;;;;;0.00;0.00;;;;;;;5.20;95.81;101803.63;6171069;23;20024;-76
2023/02/14 03:53:30;;;;;;;0.00;0.00;;;;;;;5.15;95.81;101789.81;6142379;23;20013;-75
2023/02/14 03:56:11;;;;;;;0.00;0.00;;;;;;;5.40;95.02;101817.34;6163532;23;20009;-76
2023/02/14 03:58:49;;;;;;;0.00;0.00;;;;;;;5.49;95.04;101817.19;6165133;23;20032;-76
2023/02/14 04:04:42;;;;;;;0.00;0.00;;;;;;;5.40;95.65;101792.94;6191467;23;20028;-74
2023/02/14 04:07:19;;;;;;;0.00;0.00;;;;;;;5.54;95.48;101820.16;6189112;23;20004;-76
2023/02/14 04:09:48;;;;;;;0.00;0.00;;;;;;;5.43;94.96;101797.09;6164057;23;19988;-76
2023/02/14 04:12:18;;;;;;;0.00;0.00;;;;;;;5.55;95.09;101817.25;6162492;23;19993;-75
2023/02/14 04:14:44;;;;;;;0.00;0.00;;;;;;;5.42;94.39;101790.84;6196662;23;20439;-75
2023/02/14 04:19:58;;;;;;;0.00;0.00;;;;;;;5.51;94.51;101810.53;6198986;23;20023;-77
2023/02/14 04:22:30;;;;;;;0.00;0.00;;;;;;;5.69;94.30;101837.16;6192058;23;20011;-76
2023/02/14 04:24:56;;;;;;;0.00;0.00;;;;;;;5.75;94.05;101819.22;6194475;23;20009;-76
2023/02/14 04:27:45;;;;;;;;;;;;;;;;;;;;;
2023/02/14 04:30:33;;;;;;;;;;;;;;;;;;;;;
2023/02/14 04:33:09;;;;;;;;;;;;;;;;;;;;;
2023/02/14 04:35:35;;;;;;;0.00;0.00;;;;;;;5.83;94.49;101821.78;6220919;23;20031;-76
2023/02/14 04:38:10;;;;;;;0.00;0.00;;;;;;;5.60;94.55;101801.19;6193461;23;20008;-76
2023/02/14 04:40:36;;;;;;;0.00;0.00;;;;;;;5.64;94.05;101817.94;6195563;23;20028;-74
2023/02/14 04:43:06;;;;;;;0.00;0.00;;;;;;;5.46;94.64;101804.03;6168516;23;20020;-75
2023/02/14 04:45:34;;;;;;;0.00;0.00;;;;;;;5.56;94.68;101823.50;6169671;23;20008;-75
2023/02/14 04:48:00;;;;;;;0.00;0.00;;;;;;;5.38;94.71;101788.75;6191735;23;20031;-76
2023/02/14 04:50:25;;;;;;;0.03;0.03;;;;;;;5.36;94.42;101790.78;6192013;23;20016;-75
2023/02/14 04:52:56;;;;;;;0.00;0.00;;;;;;;5.50;95.71;101808.84;6191871;23;20460;-75
2023/02/14 04:55:22;;;;;;;0.00;0.00;;;;;;;5.47;95.46;101781.28;6193933;23;20008;-75
2023/02/14 04:58:01;;;;;;;;;;;;;;;;;;;;;
2023/02/14 05:00:30;;;;;;;0.00;0.00;;;;;;;5.67;95.23;101795.81;6220306;23;20558;-75
2023/02/14 05:03:01;;;;;;;0.00;0.00;;;;;;;5.58;94.79;101781.56;6219442;23;20056;-75
2023/02/14 05:05:29;;;;;;;0.00;0.00;;;;;;;5.45;94.10;101762.50;6169154;23;20009;-74
2023/02/14 05:07:55;;;;;;;0.00;0.00;;;;;;;5.63;94.75;101808.09;6193684;23;20032;-75
2023/02/14 05:10:36;;;;;;;0.00;0.00;;;;;;;5.36;94.82;101764.53;6194699;23;20012;-75
2023/02/14 05:13:31;;;;;;;0.00;0.00;;;;;;;5.37;95.72;101774.34;6196612;23;20494;-76
2023/02/14 05:16:10;;;;;;;0.00;0.00;;;;;;;5.49;95.10;101796.34;6223350;23;20020;-76
2023/02/14 05:18:56;;;;;;;0.00;0.00;;;;;;;5.32;95.53;101757.81;6195909;23;20009;-75
2023/02/14 05:21:37;;;;;;;;;;;;;;;;;;;;;
2023/02/14 05:24:56;;;;;;;0.00;0.00;;;;;;;5.86;95.64;101817.84;6219544;23;20036;-76
2023/02/14 05:28:21;;;;;;;0.00;0.00;;;;;;;5.97;95.19;101813.72;6190161;23;20423;-77
2023/02/14 05:30:57;;;;;;;0.00;0.00;;;;;;;5.76;95.59;101775.59;6210510;23;20005;-75
2023/02/14 05:33:52;;;;;;;;;;;;;;;;;;;;;
2023/02/14 05:36:29;;;;;;;0.00;0.00;;;;;;;5.84;94.81;101787.34;6195854;23;20040;-76
2023/02/14 05:39:23;;;;;;;0.00;0.00;;;;;;;5.97;94.83;101811.84;6189605;23;20305;-76
2023/02/14 05:41:55;;;;;;;0.00;0.00;;;;;;;6.02;95.60;101806.69;6193438;23;20009;-75
2023/02/14 05:44:25;;;;;;;0.00;0.00;;;;;;;6.02;95.65;101789.56;6166059;23;20008;-75
2023/02/14 05:47:03;;;;;;;;;;;;;;;;;;;;;
2023/02/14 05:49:36;;;;;;;0.10;0.10;;;;;;;6.03;95.27;101789.34;6169516;23;20032;-75
2023/02/14 05:52:04;;;;;;;0.00;0.00;;;;;;;5.99;95.15;101774.50;6192959;23;20007;-74
2023/02/14 05:54:39;;;;;;;0.10;0.10;;;;;;;6.18;95.39;101799.25;6165671;23;20064;-75
2023/02/14 05:57:13;;;;;;;0.00;0.00;;;;;;;6.06;95.60;101775.38;6145663;23;20055;-76
2023/02/14 06:00:12;;;;;;;0.00;0.00;;;;;;;6.06;95.48;101788.94;6190189;23;20009;-76
2023/02/14 06:02:35;;;;;;;0.00;0.00;;;;;;;6.14;94.83;101803.41;6192177;23;20056;-77
2023/02/14 06:05:03;;;;;;;0.00;0.00;;;;;;;5.78;95.41;101772.69;6192399;23;20087;-76
2023/02/14 06:07:49;;;;;;;;;;;;;;;;;;;;;
2023/02/14 06:10:20;;;;;;;0.05;0.05;;;;;;;5.77;96.19;101809.84;6215910;23;20052;-75
2023/02/14 06:12:50;;;;;;;0.00;0.00;;;;;;;5.69;96.75;101801.88;6167352;23;20084;-76
2023/02/14 06:15:19;;;;;;;0.00;0.00;;;;;;;5.50;98.01;101780.88;6189054;23;20538;-77
2023/02/14 06:17:51;;;;;;;0.00;0.00;;;;;;;5.48;97.51;101775.66;6193875;23;20005;-75
2023/02/14 06:20:34;;;;;;;0.00;0.00;;;;;;;5.67;97.89;101809.38;6190990;23;20024;-77
2023/02/14 06:23:03;;;;;;;0.00;0.00;;;;;;;5.53;98.38;101769.63;6192384;23;20420;-76
2023/02/14 06:25:31;;;;;;;0.00;0.00;;;;;;;5.64;99.03;101781.81;6191957;23;20006;-76
2023/02/14 06:28:05;;;;;;;0.00;0.00;;;;;;;5.51;98.56;101771.72;6196208;23;20009;-77
2023/02/14 06:30:31;;;;;;;0.00;0.00;;;;;;;5.51;98.22;101788.00;6191443;23;20004;-77
2023/02/14 06:32:56;;;;;;;0.00;0.00;;;;;;;5.33;98.78;101769.50;6167064;23;20388;-76
2023/02/14 06:35:22;;;;;;;0.03;0.03;;;;;;;5.61;99.66;101812.91;6192504;23;20063;-76
2023/02/14 06:37:48;;;;;;;0.00;0.00;;;;;;;5.63;99.83;101809.97;6146325;23;20371;-76
2023/02/14 06:40:13;;;;;;;0.00;0.00;;;;;;;5.65;100.00;101811.47;6195939;23;20019;-78
2023/02/14 06:42:39;;;;;;;0.00;0.00;;;;;;;5.68;100.00;101811.06;6189856;23;20005;-76
2023/02/14 06:45:05;;;;;;;0.00;0.00;;;;;;;5.69;99.85;101807.28;6192983;23;20004;-75
2023/02/14 06:47:31;;;;;;;0.00;0.00;;;;;;;5.76;100.00;101807.34;6164055;23;20742;-74
2023/02/14 06:49:58;;;;;;;0.00;0.00;;;;;;;5.80;100.00;101805.06;6196124;23;20012;-76
2023/02/14 06:52:24;;;;;;;0.00;0.00;;;;;;;5.81;100.00;101810.31;6166235;23;20423;-76
2023/02/14 06:54:50;;;;;;;0.00;0.00;;;;;;;5.83;100.00;101812.81;6193872;23;20087;-76
2023/02/14 06:57:15;;;;;;;0.00;0.00;;;;;;;5.89;100.00;101823.69;6169305;23;20004;-76
2023/02/14 06:59:41;;;;;;;0.00;0.00;;;;;;;5.90;100.00;101830.00;6166868;23;20398;-76
2023/02/14 07:02:09;;;;;;;0.00;0.00;;;;;;;5.91;100.00;101831.66;6168534;23;20432;-77
2023/02/14 07:04:34;;;;;;;0.00;0.00;;;;;;;5.90;100.00;101825.38;6192026;23;20420;-76
2023/02/14 07:07:00;;;;;;;0.00;0.00;;;;;;;5.91;100.00;101826.22;6164351;23;20096;-77
2023/02/14 07:09:25;;;;;;;0.00;0.00;;;;;;;5.77;100.00;101809.03;6168572;23;20084;-76
2023/02/14 07:11:51;;;;;;;0.00;0.00;;;;;;;5.81;100.00;101821.16;6164464;23;19988;-76
2023/02/14 07:14:16;;;;;;;0.00;0.00;;;;;;;5.83;100.00;101829.13;6192934;23;20019;-74
2023/02/14 07:16:42;;;;;;;0.00;0.00;;;;;;;5.85;100.00;101827.03;6162043;23;20017;-75
2023/02/14 07:19:07;;;;;;;0.00;0.00;;;;;;;5.87;100.00;101833.09;6163749;23;20032;-76
2023/02/14 07:21:33;;;;;;;0.00;0.00;;;;;;;5.92;100.00;101839.59;6163095;23;20512;-75
2023/02/14 07:23:58;;;;;;;0.00;0.00;;;;;;;5.91;100.00;101831.66;6160644;23;20017;-76
2023/02/14 07:26:23;;;;;;;0.00;0.00;;;;;;;5.93;100.00;101840.44;6138648;23;20016;-75
2023/02/14 07:28:49;;;;;;;0.00;0.00;;;;;;;5.89;100.00;101844.59;6185553;23;20305;-75
2023/02/14 07:31:25;;;;;;;0.00;0.00;;;;;;;5.87;100.00;101830.38;6184524;23;20009;-76
2023/02/14 07:33:51;;;;;;;0.00;0.00;;;;;;;5.82;100.00;101822.81;6184401;23;20025;-75
2023/02/14 07:36:16;;;;;;;0.00;0.00;;;;;;;5.92;100.00;101833.34;6187002;23;20001;-76
2023/02/14 07:38:42;;;;;;;0.00;0.00;;;;;;;5.99;100.00;101836.13;6186498;23;20013;-75
2023/02/14 07:41:07;;;;;;;0.00;0.00;;;;;;;6.00;100.00;101840.50;6164485;23;20009;-77
2023/02/14 07:43:33;;;;;;;0.00;0.00;;;;;;;6.04;100.00;101830.91;6138591;23;20420;-76
2023/02/14 07:46:00;;;;;;;0.00;0.00;;;;;;;6.05;100.00;101832.59;6159747;23;20013;-75
2023/02/14 07:48:26;;;;;;;0.00;0.00;;;;;;;6.10;100.00;101839.09;6186781;23;20020;-76
2023/02/14 07:51:01;;;;;;;0.00;0.00;;;;;;;6.14;100.00;101841.41;6189907;23;20013;-83
2023/02/14 07:53:48;;;;;;;0.00;0.00;;;;;;;6.18;100.00;101842.69;6191681;23;19999;-84
2023/02/14 07:56:14;;;;;;;0.00;0.00;;;;;;;6.16;100.00;101839.31;6142081;23;20036;-78
2023/02/14 07:58:39;;;;;;;0.00;0.00;;;;;;;6.19;100.00;101844.34;6190147;23;20063;-77
2023/02/14 08:01:05;;;;;;;0.00;0.00;;;;;;;6.19;100.00;101837.06;6185859;23;20099;-75
2023/02/14 08:03:33;;;;;;;0.00;0.00;;;;;;;6.22;100.00;101841.22;6188574;23;20376;-83
2023/02/14 08:05:58;;;;;;;0.00;0.00;;;;;;;6.25;100.00;101854.41;6189681;23;20029;-78
2023/02/14 08:08:30;;;;;;;0.00;0.00;;;;;;;6.23;100.00;101845.63;6187571;23;20013;-81
2023/02/14 08:10:56;;;;;;;0.00;0.00;;;;;;;6.17;100.00;101830.16;6190690;23;20028;-80
2023/02/14 08:13:21;;;;;;;0.00;0.00;;;;;;;6.19;100.00;101833.47;6188142;23;19997;-81
2023/02/14 08:16:14;;;;;;;;;;;;;;;;;;;;;
2023/02/14 08:18:47;;;;;;;0.00;0.00;;;;;;;6.07;100.00;101836.78;6186935;23;20032;-81
2023/02/14 08:21:16;;;;;;;0.00;0.00;;;;;;;6.16;100.00;101844.75;6163498;23;20013;-82
2023/02/14 08:23:42;;;;;;;0.00;0.00;;;;;;;6.20;100.00;101840.59;6161644;23;20298;-82
2023/02/14 08:26:07;;;;;;;0.00;0.00;;;;;;;6.25;100.00;101852.53;6188215;23;20008;-81
2023/02/14 08:28:34;;;;;;;0.00;0.00;;;;;;;6.25;100.00;101848.97;6185405;23;20009;-79
2023/02/14 08:31:01;;;;;;;0.00;0.00;;;;;;;6.21;100.00;101847.72;6164523;23;19999;-82
2023/02/14 08:33:28;;;;;;;0.00;0.00;;;;;;;6.22;100.00;101855.66;6190185;23;19997;-81
2023/02/14 08:35:56;;;;;;;0.00;0.00;;;;;;;6.17;100.00;101847.28;6161459;23;20009;-82
2023/02/14 08:38:22;;;;;;;0.00;0.00;;;;;;;6.10;100.00;101824.66;6165142;23;20012;-80
2023/02/14 08:40:47;;;;;;;0.10;0.10;;;;;;;6.21;100.00;101842.28;6154848;23;20336;-82
2023/02/14 08:43:14;;;;;;;0.00;0.00;;;;;;;6.23;100.00;101845.63;6164442;23;20009;-81
2023/02/14 08:46:16;;;;;;;;;;;;;;;;;;;;;
2023/02/14 08:49:10;;;;;;;0.00;0.00;;;;;;;6.35;100.00;101832.28;6129794;23;20532;-80
2023/02/14 08:51:40;;;;;;;0.00;0.00;;;;;;;6.40;100.00;101829.81;6189998;23;20012;-80
2023/02/14 08:54:35;;;;;;;0.00;0.00;;;;;;;6.62;100.00;101858.53;6188182;23;20001;-78
2023/02/14 08:57:20;;;;;;;;;;;;;;;;;;;;;
2023/02/14 09:00:14;;;;;;;0.00;0.00;;;;;;;6.52;100.00;101835.50;6192383;23;20301;-80
2023/02/14 09:02:48;;;;;;;0.00;0.00;;;;;;;6.54;100.00;101819.81;6189022;23;20013;-82
2023/02/14 09:05:13;;;;;;;0.00;0.00;;;;;;;6.56;100.00;101836.78;6189503;23;20009;-82
2023/02/14 09:07:39;;;;;;;0.00;0.00;;;;;;;6.74;100.00;101863.38;6165501;23;20091;-82
2023/02/14 09:10:10;;;;;;;0.00;0.00;;;;;;;6.77;100.00;101874.66;6137543;23;20220;-82
2023/02/14 09:12:40;;;;;;;0.00;0.00;;;;;;;6.73;100.00;101873.41;6166836;23;20012;-81
2023/02/14 09:15:08;;;;;;;0.00;0.00;;;;;;;6.80;100.00;101868.84;6188176;23;20048;-78
2023/02/14 09:17:47;;;;;;;;;;;;;;;;;;;;;
2023/02/14 09:20:14;;;;;;;0.00;0.00;;;;;;;6.56;100.00;101853.09;6187179;23;20024;-77
2023/02/14 09:22:40;;;;;;;0.00;0.00;;;;;;;6.51;100.00;101844.69;6164757;23;20404;-77
2023/02/14 09:25:06;;;;;;;0.00;0.00;;;;;;;6.61;100.00;101850.56;6189090;23;20009;-78
2023/02/14 09:27:31;;;;;;;0.00;0.00;;;;;;;6.58;100.00;101851.81;6191516;23;20319;-78
2023/02/14 09:29:57;;;;;;;0.00;0.00;;;;;;;6.72;100.00;101860.84;6194669;23;20009;-77
2023/02/14 09:32:25;;;;;;;0.00;0.00;;;;;;;6.72;100.00;101860.84;6170881;23;20013;-78
2023/02/14 09:40:19;;;;;;;0.00;0.00;;;;;;;6.62;100.00;101838.66;6188934;23;20012;-77
2023/02/14 09:42:52;;;;;;;0.00;0.00;;;;;;;6.60;100.00;101854.31;6164660;23;20009;-78
2023/02/14 09:45:25;;;;;;;0.00;0.00;;;;;;;6.74;100.00;101857.94;6187403;23;20012;-78
2023/02/14 09:47:56;;;;;;;0.00;0.00;;;;;;;6.80;100.00;101852.53;6188433;23;20455;-78
2023/02/14 09:50:39;;;;;;;0.10;0.10;;;;;;;6.82;100.00;101844.97;6187912;23;20067;-79
2023/02/14 09:53:31;;;;;;;0.00;0.00;;;;;;;6.79;100.00;101839.09;6187620;23;20359;-77
2023/02/14 09:56:25;;;;;;;0.00;0.00;;;;;;;6.92;100.00;101851.88;6171172;23;20530;-78
2023/02/14 09:59:11;;;;;;;0.00;0.00;;;;;;;6.89;100.00;101833.28;6186715;23;20706;-78
2023/02/14 10:01:59;;;;;;;0.00;0.00;;;;;;;7.05;100.00;101862.78;6188098;23;20004;-78
2023/02/14 10:04:38;;;;;;;0.00;0.00;;;;;;;7.09;100.00;101866.78;6188107;23;20016;-79
2023/02/14 10:07:25;;;;;;;0.00;0.00;;;;;;;7.10;100.00;101868.47;6185032;23;19997;-77
2023/02/14 10:10:12;;;;;;;0.00;0.00;;;;;;;7.21;100.00;101863.44;6184678;23;20523;-78
2023/02/14 10:13:15;;;;;;;0.00;0.00;;;;;;;7.34;100.00;101866.16;6186265;23;20009;-79
2023/02/14 10:15:57;;;;;;;;;;;;;;;;;;;;;
2023/02/14 10:18:49;;;;;;;0.00;0.00;;;;;;;7.80;100.00;101862.56;6217486;23;20039;-78
2023/02/14 10:21:26;;;;;;;0.00;0.00;;;;;;;8.08;100.00;101853.28;6189426;23;20001;-79
2023/02/14 10:24:13;;;;;;;0.00;0.00;;;;;;;8.12;100.00;101843.63;6186723;23;20004;-79
2023/02/14 10:26:40;;;;;;;0.00;0.00;;;;;;;8.26;99.80;101860.75;6192289;23;20000;-78
2023/02/14 10:29:17;;;;;;;0.00;0.00;;;;;;;8.21;99.51;101872.31;6186110;23;20008;-78
2023/02/14 10:32:01;;;;;;;0.00;0.00;;;;;;;8.27;99.27;101861.63;6192089;23;20000;-78
2023/02/14 10:34:31;;;;;;;0.00;0.00;;;;;;;8.38;98.18;101875.41;6193657;23;20011;-80
2023/02/14 10:37:31;;;;;;;0.00;0.00;;;;;;;8.39;97.27;101870.78;6191576;23;20292;-78
2023/02/14 10:40:01;;;;;;;0.00;0.00;;;;;;;8.40;97.15;101872.47;6217516;23;20027;-78
2023/02/14 10:43:01;;;;;;;0.00;0.00;;;;;;;8.41;97.37;101874.16;6186913;23;20009;-79
2023/02/14 10:45:33;;;;;;;0.00;0.00;;;;;;;8.58;97.74;101865.50;6190236;23;20099;-78
2023/02/14 10:48:16;;;;;;;0.00;0.00;;;;;;;8.51;96.24;101847.28;6195084;23;20011;-78
2023/02/14 10:51:03;;;;;;;0.00;0.00;;;;;;;8.83;96.20;101839.09;6191917;23;20004;-79
2023/02/14 10:53:34;;;;;;;0.00;0.00;;;;;;;9.25;95.29;101853.09;6196483;23;20009;-78
2023/02/14 10:56:07;;;;;;;0.00;0.00;;;;;;;9.60;93.33;101854.47;6213629;23;20001;-77
2023/02/14 10:58:46;;;;;;;0.00;0.00;;;;;;;9.66;91.56;101850.00;6193361;23;20045;-78
2023/02/14 11:01:19;;;;;;;0.00;0.00;;;;;;;9.88;91.35;101848.50;6187648;23;20015;-78
2023/02/14 11:04:07;;;;;;;0.00;0.00;;;;;;;10.30;89.93;101840.44;6217922;23;20367;-78
2023/02/14 11:06:33;;;;;;;0.00;0.00;;;;;;;10.68;85.70;101848.63;6214508;23;20000;-78
2023/02/14 11:09:02;;;;;;;0.10;0.10;;;;;;;10.88;84.97;101860.13;6165823;23;20538;-78
2023/02/14 11:11:44;;;;;;;0.00;0.00;;;;;;;10.77;83.72;101859.00;6190526;23;20396;-77
2023/02/14 11:14:34;;;;;;;0.00;0.00;;;;;;;10.94;84.41;101848.25;6194100;23;20008;-77
2023/02/14 11:17:29;;;;;;;0.00;0.00;;;;;;;11.13;83.14;101823.53;6191541;23;20025;-78
2023/02/14 11:20:18;;;;;;;0.00;0.00;;;;;;;11.47;80.51;101841.06;6222526;23;19997;-78
2023/02/14 11:22:47;;;;;;;0.00;0.00;;;;;;;11.63;81.20;101831.31;6194640;23;20009;-78
2023/02/14 11:25:23;;;;;;;0.00;0.00;;;;;;;11.97;80.74;101842.53;6192203;23;20000;-78
2023/02/14 11:28:01;;;;;;;0.00;0.00;;;;;;;11.86;79.39;101821.41;6195606;23;20000;-78
2023/02/14 11:30:35;;;;;;;0.00;0.00;;;;;;;11.94;79.81;101829.28;6192082;23;20004;-77
2023/02/14 11:33:01;;;;;;;0.00;0.00;;;;;;;12.01;79.26;101819.00;6193275;23;19996;-79
2023/02/14 11:35:33;;;;;;;0.00;0.00;;;;;;;12.16;79.02;101820.41;6194017;23;20008;-77
2023/02/14 11:38:18;;;;;;;0.00;0.00;;;;;;;12.58;78.37;101833.88;6194896;23;20704;-78
2023/02/14 11:40:43;;;;;;;0.10;0.10;;;;;;;13.62;77.13;101829.06;6191422;23;20008;-79
2023/02/14 11:43:09;;;;;;;0.00;0.00;;;;;;;14.72;73.64;101822.75;6169023;23;20646;-77
2023/02/14 11:45:39;;;;;;;0.00;0.00;;;;;;;14.99;71.86;101821.91;6192366;23;20010;-77
2023/02/14 11:48:20;;;;;;;0.00;0.00;;;;;;;15.13;68.82;101836.91;6192877;23;20001;-79
2023/02/14 11:51:07;;;;;;;0.00;0.00;;;;;;;14.52;70.37;101817.00;6189427;23;20008;-79
2023/02/14 11:53:47;;;;;;;0.00;0.00;;;;;;;14.29;71.59;101825.28;6219860;23;20024;-79
2023/02/14 11:56:14;;;;;;;0.00;0.00;;;;;;;15.24;71.63;101818.53;6192375;23;20336;-78
2023/02/14 11:58:58;;;;;;;0.00;0.00;;;;;;;15.85;68.11;101818.13;6193996;23;20035;-77
2023/02/14 12:01:40;;;;;;;0.00;0.00;;;;;;;17.12;67.92;101811.59;6191275;23;20005;-78
2023/02/14 12:04:18;;;;;;;0.00;0.00;;;;;;;19.74;57.68;101823.25;6174025;23;20035;-78
2023/02/14 12:06:44;;;;;;;0.00;0.00;;;;;;;19.22;56.41;101811.84;6199423;23;20001;-78
2023/02/14 12:09:23;;;;;;;0.00;0.00;;;;;;;18.33;57.47;101807.97;6172488;23;20054;-78
2023/02/14 12:12:01;;;;;;;0.00;0.00;;;;;;;17.41;58.91;101798.03;6218245;23;20001;-78
2023/02/14 12:14:30;;;;;;;0.00;0.00;;;;;;;16.49;60.55;101788.56;6192882;23;20012;-79
2023/02/14 12:17:11;;;;;;;0.00;0.00;;;;;;;16.20;61.10;101802.81;6183491;23;20045;-79
2023/02/14 12:19:50;;;;;;;0.00;0.00;;;;;;;15.99;61.58;101807.44;6189174;23;20085;-78
2023/02/14 12:22:25;;;;;;;0.00;0.00;;;;;;;15.83;61.57;101797.44;6188108;23;20020;-78
2023/02/14 12:24:53;;;;;;;0.00;0.00;;;;;;;16.20;60.16;101796.50;6212865;23;20005;-76
2023/02/14 12:27:25;;;;;;;0.00;0.00;;;;;;;18.52;57.25;101776.88;6186296;23;20005;-78
2023/02/14 12:30:05;;;;;;;0.00;0.00;;;;;;;20.41;52.74;101798.28;6189824;23;20073;-78
2023/02/14 12:32:32;;;;;;;0.00;0.00;;;;;;;20.56;49.66;101800.03;6187708;23;20004;-77
2023/02/14 12:35:21;;;;;;;0.00;0.00;;;;;;;18.73;51.20;101783.91;6189784;23;20478;-77
2023/02/14 12:38:15;;;;;;;0.00;0.00;;;;;;;17.63;53.18;101790.22;6187401;23;20009;-78
2023/02/14 12:41:11;;;;;;;0.00;0.00;;;;;;;18.46;53.45;101787.16;6185277;23;20318;-77
2023/02/14 12:43:54;;;;;;;0.00;0.00;;;;;;;19.03;52.93;101782.06;6186830;23;20302;-77
2023/02/14 12:46:22;;;;;;;0.00;0.00;;;;;;;20.12;51.28;101778.94;6187810;23;20059;-77
2023/02/14 12:49:02;;;;;;;0.00;0.00;;;;;;;22.87;47.42;101782.75;6187559;23;20100;-78
2023/02/14 12:51:49;;;;;;;0.00;0.00;;;;;;;24.04;43.45;101772.38;6188441;23;20409;-79
2023/02/14 12:54:41;;;;;;;0.00;0.00;;;;;;;26.72;39.16;101768.59;6188761;23;20008;-78
2023/02/14 12:57:15;;;;;;;0.00;0.00;;;;;;;29.94;34.98;101763.88;6190413;23;20020;-79
2023/02/14 13:00:04;;;;;;;0.00;0.00;;;;;;;31.00;32.85;101762.91;6187683;23;20004;-79
2023/02/14 13:03:00;;;;;;;0.00;0.00;;;;;;;32.58;30.42;101758.94;6160256;23;20008;-79
2023/02/14 13:05:25;;;;;;;0.00;0.00;;;;;;;33.81;28.69;101763.78;6189641;23;20063;-81
2023/02/14 13:08:12;;;;;;;0.00;0.00;;;;;;;36.24;26.28;101752.47;6190083;23;20009;-81
2023/02/14 13:11:07;;;;;;;0.00;0.00;;;;;;;36.76;24.93;101736.78;6190671;23;20016;-80
2023/02/14 13:13:53;;;;;;;;;;;;;;;37.09;23.13;101743.09;6190231;23;20000;-81
2023/02/14 13:16:30;;;;;;;0.00;0.00;;;;;;;38.54;22.74;101737.53;6189415;23;19938;-82
2023/02/14 13:19:08;;;;;;;0.00;0.00;;;;;;;39.68;20.98;101727.59;6191382;23;20001;-82
2023/02/14 13:21:47;;;;;;;;;;;;;;;;;;;;;
2023/02/14 13:24:24;;;;;;;0.00;0.00;;;;;;;40.79;19.44;101719.50;6191204;23;20025;-80
2023/02/14 13:26:56;;;;;;;0.00;0.00;;;;;;;40.79;18.43;101716.63;6191701;23;20009;-78
2023/02/14 13:29:36;;;;;;;;;;;;;;;;;;;;;
2023/02/14 13:32:14;;;;;;;0.00;0.00;;;;;;;40.02;19.78;101703.63;6190249;23;20034;-78
2023/02/14 13:34:46;;;;;;;0.00;0.00;;;;;;;39.58;19.93;101703.63;6189321;23;20009;-80
2023/02/14 13:37:34;;;;;;;0.00;0.00;;;;;;;40.92;19.99;101713.06;6188509;23;19997;-79
2023/02/14 13:40:17;;;;;;;0.00;0.00;;;;;;;41.82;18.57;101679.97;6189194;23;20005;-79
2023/02/14 13:42:57;;;;;;;0.00;0.00;;;;;;;42.62;17.39;101700.56;6185697;23;20040;-79
2023/02/14 13:45:52;;;;;;;0.00;0.00;;;;;;;43.17;17.67;101695.44;6191376;23;20011;-80
2023/02/14 13:48:39;;;;;;;0.00;0.00;;;;;;;43.87;15.80;101683.91;6188364;23;20098;-79
2023/02/14 13:51:46;;;;;;;0.00;0.00;;;;;;;42.99;14.92;101686.59;6186295;23;20016;-78
2023/02/14 13:54:39;;;;;;;0.00;0.00;;;;;;;42.01;16.49;101685.97;6152906;23;20001;-80
2023/02/14 13:57:29;;;;;;;0.00;0.00;;;;;;;41.08;16.35;101678.66;6188056;23;20001;-81
2023/02/14 14:00:18;;;;;;;0.00;0.00;;;;;;;40.18;16.68;101674.22;6185203;23;20012;-81
2023/02/14 14:02:54;;;;;;;0.00;0.00;;;;;;;40.91;17.35;101652.06;6188544;23;19996;-81
2023/02/14 14:05:29;;;;;;;0.00;0.00;;;;;;;42.13;16.97;101659.34;6188495;23;20051;-79
2023/02/14 14:08:22;;;;;;;0.00;0.00;;;;;;;42.79;16.54;101664.66;6191042;23;20009;-80
2023/02/14 14:10:59;;;;;;;0.00;0.00;;;;;;;43.22;16.04;101645.91;6188717;23;20023;-80
2023/02/14 14:13:40;;;;;;;0.00;0.00;;;;;;;42.31;14.37;101652.25;6186414;23;20060;-80
2023/02/14 14:16:19;;;;;;;0.00;0.00;;;;;;;41.84;15.89;101651.59;6205490;23;20009;-82
2023/02/14 14:18:55;;;;;;;0.00;0.00;;;;;;;42.34;15.80;101640.63;6189213;23;20332;-79
2023/02/14 14:21:23;;;;;;;0.00;0.00;;;;;;;42.80;16.05;101640.41;6168994;23;20321;-78
2023/02/14 14:24:24;;;;;;;0.00;0.00;;;;;;;42.87;15.58;101634.38;6187823;23;20027;-79
2023/02/14 14:27:03;;;;;;;0.00;0.00;;;;;;;42.06;15.21;101632.88;6192833;23;20023;-79
2023/02/14 14:29:39;;;;;;;0.00;0.00;;;;;;;41.58;16.09;101627.72;6194514;23;20039;-79
2023/02/14 14:32:20;;;;;;;0.00;0.00;;;;;;;41.85;16.13;101630.25;6191338;23;20004;-78
2023/02/14 14:34:57;;;;;;;0.00;0.00;;;;;;;41.84;16.02;101625.75;6173850;23;20008;-78
2023/02/14 14:37:27;;;;;;;0.00;0.00;;;;;;;41.84;15.45;101617.13;6193866;23;20004;-80
2023/02/14 14:40:01;;;;;;;0.00;0.00;;;;;;;41.33;16.17;101614.09;6202816;23;20056;-79
2023/02/14 14:42:32;;;;;;;0.00;0.00;;;;;;;40.43;16.59;101608.53;6203308;23;20474;-79
2023/02/14 14:45:07;;;;;;;0.00;0.00;;;;;;;39.77;16.83;101602.66;6198255;23;20012;-78
2023/02/14 14:47:41;;;;;;;0.00;0.00;;;;;;;39.00;16.97;101595.94;6192808;23;20006;-79
2023/02/14 14:50:17;;;;;;;0.00;0.00;;;;;;;38.44;17.22;101578.53;6196229;23;20391;-79